Pagina principale
METAR-TAF:

METAR-TAF

Aeroporti :

Aeroporto di Torino-Caselle

Torino, Italia

latitudine: 45-13N, longitudine: 007-39E, altezza: 301 m

Osservazione

Il bollettino è stato emesso 18 minuti fa, alle 23:20 UTC
Vento 5 kt da ovest/nord-ovest
Temperature 11°C
Umidità 47%
Pressione 1016 hPa
Visibilità 10 km o più
nessuna nube inferiore a 1500 m e nessun cumulonembo

METAR: LIMF 242320Z 29005KT CAVOK 11/M00 Q1016

Ora: 00:38 (23:38 UTC)

Previsione

Il bollettino è stato emesso 38 minuti fa, alle 23:00 UTC
Previsione valida dal 25 alle 00 UTC al 25 alle 24 UTC
Vento 5 kt da direzioni variabili
Visibilità 10 km o più
nessuna nube inferiore a 1500 m e nessun cumulonembo
Evoluzione graduale
dal 25 alle 16 UTC al 25 alle 18 UTC
Vento 15 kt da nord-est
Evoluzione graduale
dal 25 alle 22 UTC al 25 alle 24 UTC
Vento 5 kt da direzioni variabili

TAF: LIMF 242300Z 2500/2524 VRB05KT CAVOK BECMG 2516/2518 05015KT BECMG 2522/2524 VRB05KT

Osservazioni e previsioni meteorologiche di più di 4000 aeroporti (messaggi METAR e TAF).

Le stazioni disponibili sono rappresentate dai dischi gialli e rossi sulla carta.

Puntare il mouse per vedere il nome della stazione.

Clicca sopra per visualizzare le osservazioni e previsioni meteorologiche.

Per cambiare la mappa : fare clic sui pulsanti verdi con una croce nera per ingrandire, il pulsante verde con un trattino per diminuire, o sulla freccia verde per le mappe adiacenti.


METAR-TAF: